This is the latest recevied weather packets stored in our database for station/object OSTR-WX. If no packets are shown the sender has not sent any weather packets the latest 10 day(s).
| Time | Temp. | Humidity | Pressure | Rain* | Wind** | Luminosity | Snow |
|---|---|---|---|---|---|---|---|
| 1777982223 | 26.67° C | 26% | 1007.4 hPa | - | - | - | - |
| 1777981267 | 27.78° C | 23% | 1007.4 hPa | - | - | - | - |
| 1777980575 | 28.89° C | 24% | 1007.3 hPa | - | - | - | - |
| 1777980309 | 28.89° C | 24% | 1007.3 hPa | - | - | - | - |
| 1777979352 | 28.89° C | 23% | 1007.4 hPa | - | - | - | - |
| 1777978396 | 28.89° C | 27% | 1007.5 hPa | - | - | - | - |
| 1777977439 | 27.78° C | 28% | 1007.9 hPa | - | - | - | - |
| 1777976482 | 28.33° C | 29% | 1008 hPa | - | - | - | - |
| 1777975526 | 27.78° C | 30% | 1008.3 hPa | - | - | - | - |
| 1777974579 | 27.22° C | 38% | 1008.4 hPa | - | - | - | - |
| 1777974572 | 27.22° C | 38% | 1008.4 hPa | - | - | - | - |
| 1777973611 | 26.67° C | 36% | 1008.8 hPa | - | - | - | - |
| 1777972655 | 25.56° C | 39% | 1009.1 hPa | - | - | - | - |
| 1777971699 | 25° C | 37% | 1009.3 hPa | - | - | - | - |
| 1777970741 | 24.44° C | 39% | 1009.6 hPa | - | - | - | - |
| 1777969785 | 23.89° C | 40% | 1009.8 hPa | - | - | - | - |
| 1777968826 | 23.33° C | 40% | 1010 hPa | - | - | - | - |
| 1777967869 | 22.22° C | 41% | 1010.3 hPa | - | - | - | - |
| 1777966913 | 21.67° C | 40% | 1010.5 hPa | - | - | - | - |
| 1777965956 | 21.11° C | 43% | 1010.7 hPa | - | - | - | - |
| 1777964998 | 20.56° C | 45% | 1010.9 hPa | - | - | - | - |
| 1777964041 | 18.89° C | 51% | 1011.2 hPa | - | - | - | - |
| 1777963091 | 16.67° C | 59% | 1011.6 hPa | - | - | - | - |
| 1777963084 | 16.67° C | 59% | 1011.6 hPa | - | - | - | - |
| 1777962127 | 16.11° C | 62% | 1011.8 hPa | - | - | - | - |
* Rain since midnight (hover to see other rain measurements)
** Current wind speed in m/s (hover to see current wind gust speed)